Time;durP1;ratioP1;P1;durP2;ratioP2;P2;SDS_P1;SDS_P2;PMS_P1;PMS_P2;Temp;Humidity;BMP_temperature;BMP_pressure;BME280_temperature;BME280_humidity;BME280_pressure;Samples;Min_cycle;Max_cycle;Signal;HPM_P1;HPM_P2
2023/02/02 00:16:51;;;;;;;60.00;36.55;;;4.40;99.90;;;;;;5682551;24;20033;-81
2023/02/02 00:30:56;;;;;;;42.05;26.55;;;4.30;99.90;;;;;;4681048;30;20373;-82
2023/02/02 00:33:24;;;;;;;;;;;4.00;99.90;;;;;;5440380;24;20106;-81
2023/02/02 00:39:28;;;;;;;43.28;27.95;;;4.30;99.90;;;;;;4913679;24;20056;-80
2023/02/02 00:42:28;;;;;;;46.33;26.88;;;4.40;99.90;;;;;;4688047;30;20060;-80
2023/02/02 00:47:55;;;;;;;41.88;26.15;;;4.30;99.90;;;;;;4646678;28;20049;-78
2023/02/02 00:50:25;;;;;;;35.38;21.88;;;4.40;99.90;;;;;;4736364;30;20052;-79
2023/02/02 01:02:10;;;;;;;36.67;23.20;;;4.30;99.90;;;;;;5340149;24;20064;-79
2023/02/02 01:10:47;;;;;;;42.53;24.98;;;4.50;99.90;;;;;;4701332;30;20064;-80
2023/02/02 01:13:15;;;;;;;42.47;25.10;;;4.40;99.90;;;;;;4702988;30;20247;-83
2023/02/02 01:15:43;;;;;;;46.42;29.00;;;4.30;99.90;;;;;;4714504;30;20516;-76
2023/02/02 01:18:10;;;;;;;51.63;30.48;;;4.00;99.90;;;;;;4701290;30;20057;-80
2023/02/02 01:20:46;;;;;;;54.83;30.95;;;4.10;99.90;;;;;;4705898;30;20517;-81
2023/02/02 01:35:24;;;;;;;44.77;28.43;;;3.50;99.90;;;;;;4691161;30;20057;-81
2023/02/02 01:38:42;;;;;;;47.55;29.65;;;3.70;99.90;;;;;;4668272;30;20477;-81
2023/02/02 01:44:10;;;;;;;50.03;27.88;;;3.40;99.90;;;;;;5197799;24;20122;-81
2023/02/02 01:57:53;;;;;;;35.00;22.35;;;3.20;99.90;;;;;;5393433;24;20090;-82
2023/02/02 02:00:28;;;;;;;37.05;23.17;;;3.00;99.90;;;;;;4722087;30;20059;-78
2023/02/02 02:17:17;;;;;;;44.60;27.55;;;3.60;99.90;;;;;;4732237;30;20037;-77
2023/02/02 02:35:33;;;;;;;47.03;27.85;;;3.60;99.90;;;;;;4703269;30;20041;-80
2023/02/02 02:38:49;;;;;;;48.97;27.88;;;3.40;99.90;;;;;;4662941;30;20559;-80
2023/02/02 02:47:05;;;;;;;51.58;33.03;;;2.90;99.90;;;;;;5028895;24;20068;-80
2023/02/02 02:57:00;;;;;;;42.50;25.60;;;3.30;99.90;;;;;;5153919;24;20125;-77
2023/02/02 03:00:25;;;;;;;40.15;25.08;;;3.20;99.90;;;;;;4747658;30;20493;-77
2023/02/02 03:12:48;;;;;;;36.42;24.33;;;3.20;99.90;;;;;;4747217;30;20105;-80
2023/02/02 03:19:33;;;;;;;35.20;22.42;;;2.90;99.90;;;;;;5606455;24;20118;-79
2023/02/02 03:22:12;;;;;;;33.78;22.10;;;2.80;99.90;;;;;;4979560;24;20126;-80
2023/02/02 03:24:58;;;;;;;38.00;23.88;;;2.60;99.90;;;;;;4705435;30;20108;-81
2023/02/02 03:27:37;;;;;;;37.85;24.55;;;2.80;99.90;;;;;;4701159;30;20065;-82
2023/02/02 03:30:19;;;;;;;40.42;24.08;;;2.80;99.90;;;;;;4700994;30;20395;-81
2023/02/02 03:37:46;;;;;;;36.70;23.65;;;3.00;99.90;;;;;;4758769;24;20044;-80
2023/02/02 03:45:39;;;;;;;35.10;22.02;;;2.90;99.90;;;;;;4698200;30;20071;-78
2023/02/02 03:48:07;;;;;;;43.47;23.88;;;2.80;99.90;;;;;;4680791;30;20510;-78
2023/02/02 03:50:40;;;;;;;43.40;27.95;;;2.80;99.90;;;;;;4709346;30;20633;-79
2023/02/02 03:53:46;;;;;;;51.65;29.58;;;2.60;99.90;;;;;;4717308;30;20426;-77
2023/02/02 03:56:19;;;;;;;39.65;26.23;;;2.60;99.90;;;;;;4727770;30;20052;-78
2023/02/02 04:09:18;;;;;;;50.20;29.95;;;2.70;99.90;;;;;;4710757;30;20790;-79
2023/02/02 04:11:41;;;;;;;51.72;28.38;;;2.60;99.90;;;;;;4715043;30;20045;-77
2023/02/02 04:14:10;;;;;;;44.95;28.92;;;2.30;99.90;;;;;;4733818;30;20052;-80
2023/02/02 04:16:39;;;;;;;49.15;29.35;;;2.40;99.90;;;;;;4689288;30;20044;-78
2023/02/02 04:19:06;;;;;;;53.35;29.98;;;2.50;99.90;;;;;;4733833;30;20102;-80
2023/02/02 04:21:37;;;;;;;51.50;30.80;;;2.50;99.90;;;;;;4733629;30;20080;-78
2023/02/02 04:25:23;;;;;;;59.80;31.55;;;2.50;99.90;;;;;;4692196;30;20355;-83
2023/02/02 04:28:16;;;;;;;48.95;29.40;;;2.40;99.90;;;;;;4683957;30;20597;-81
2023/02/02 04:36:57;;;;;;;48.15;27.52;;;2.40;99.90;;;;;;4706710;30;20052;-80
2023/02/02 04:39:54;;;;;;;49.58;28.85;;;2.30;99.90;;;;;;4705102;30;20097;-81
2023/02/02 04:42:49;;;;;;;43.78;28.85;;;2.30;99.90;;;;;;4968609;24;20076;-83
2023/02/02 04:45:21;;;;;;;47.40;28.08;;;2.40;99.90;;;;;;4733501;30;20041;-78
2023/02/02 04:52:42;;;;;;;47.35;25.90;;;2.40;99.90;;;;;;4717793;30;20052;-78
2023/02/02 04:55:09;;;;;;;41.15;25.00;;;2.10;99.90;;;;;;4712261;30;20056;-78
2023/02/02 04:57:44;;;;;;;38.30;25.33;;;2.10;99.90;;;;;;4733847;30;20040;-82
2023/02/02 05:00:24;;;;;;;39.55;25.55;;;2.00;99.90;;;;;;4736584;30;20049;-82
2023/02/02 05:06:50;;;;;;;44.95;26.25;;;1.90;99.90;;;;;;4782866;24;20139;-82
2023/02/02 05:09:24;;;;;;;43.28;27.10;;;2.10;99.90;;;;;;4730064;30;20061;-83
2023/02/02 05:13:07;;;;;;;40.42;25.85;;;2.00;99.90;;;;;;4729526;30;20064;-85
2023/02/02 05:15:37;;;;;;;41.67;25.98;;;1.80;99.90;;;;;;4711304;30;20103;-83
2023/02/02 05:18:42;;;;;;;44.40;27.55;;;1.80;99.90;;;;;;4707974;30;20131;-83
2023/02/02 05:24:50;;;;;;;42.13;25.42;;;1.70;99.90;;;;;;5285441;24;20060;-81
2023/02/02 05:27:46;;;;;;;45.85;26.48;;;2.00;99.90;;;;;;5451238;24;20053;-85
2023/02/02 05:31:52;;;;;;;47.88;25.75;;;2.00;99.90;;;;;;4695278;30;20072;-84
2023/02/02 05:34:36;;;;;;;41.47;27.00;;;2.30;99.90;;;;;;4703318;30;20062;-82
2023/02/02 05:37:49;;;;;;;46.50;27.13;;;2.30;99.90;;;;;;4690979;30;20123;-79
2023/02/02 05:43:09;;;;;;;45.08;27.60;;;1.90;99.90;;;;;;5730215;24;20048;31
2023/02/02 05:48:32;;;;;;;44.35;27.27;;;2.10;99.90;;;;;;4796607;24;20485;-80
2023/02/02 05:51:36;;;;;;;47.38;27.92;;;2.10;99.90;;;;;;4715353;30;20080;-84
2023/02/02 05:56:13;;;;;;;;;;;;;;;;;;;;;
2023/02/02 06:05:06;;;;;;;;;;;;;;;;;;;;;
2023/02/02 06:11:18;;;;;;;64.25;32.75;;;1.80;99.90;;;;;;4856950;24;20049;-79
2023/02/02 06:17:21;;;;;;;64.03;36.20;;;2.20;99.90;;;;;;5376472;24;20053;-84
2023/02/02 06:19:56;;;;;;;69.47;39.13;;;2.00;99.90;;;;;;4728485;30;20057;-82
2023/02/02 06:28:29;;;;;;;59.63;34.45;;;3.20;99.90;;;;;;5274259;24;20069;-82
2023/02/02 06:45:58;;;;;;;36.13;22.60;;;1.90;99.90;;;;;;4705416;28;20525;-82
2023/02/02 06:48:26;;;;;;;41.40;20.98;;;2.10;99.90;;;;;;4733326;30;20044;-83
2023/02/02 06:51:06;;;;;;;38.35;20.65;;;2.00;99.90;;;;;;4726364;30;20044;-80
2023/02/02 06:57:04;;;;;;;45.60;26.42;;;2.20;99.90;;;;;;4908228;24;20077;-84
2023/02/02 07:00:11;;;;;;;26.17;17.55;;;2.10;99.90;;;;;;4715309;24;20076;-83
2023/02/02 07:02:39;;;;;;;27.25;18.08;;;2.20;99.90;;;;;;4735528;30;20499;-80
2023/02/02 07:05:07;;;;;;;28.92;18.92;;;2.30;99.90;;;;;;4723709;30;20121;-78
2023/02/02 07:10:43;;;;;;;;;;;;;;;;;;;;;
2023/02/02 07:13:45;;;;;;;30.17;19.02;;;2.60;99.90;;;;;;4965653;24;20067;-81
2023/02/02 07:20:50;;;;;;;30.98;19.05;;;2.60;99.90;;;;;;4664076;30;20130;-80
2023/02/02 07:24:09;;;;;;;27.73;19.08;;;2.80;99.90;;;;;;4666896;30;20066;-80
2023/02/02 07:26:36;;;;;;;41.13;19.45;;;2.80;99.90;;;;;;4697717;30;20411;-78
2023/02/02 07:32:34;;;;;;;29.25;19.60;;;3.00;99.90;;;;;;5149724;24;20293;-79
2023/02/02 07:39:04;;;;;;;;;;;;;;;;;;;;;
2023/02/02 07:42:04;;;;;;;32.88;22.13;;;3.60;99.90;;;;;;5084757;24;20525;-80
2023/02/02 07:44:31;;;;;;;36.95;21.90;;;3.80;99.90;;;;;;4715488;30;20101;-79
2023/02/02 07:47:17;;;;;;;38.97;24.27;;;4.00;99.90;;;;;;4715620;30;20045;-80
2023/02/02 07:50:12;;;;;;;41.15;25.52;;;4.20;99.90;;;;;;4938094;24;20461;-80
2023/02/02 07:53:04;;;;;;;41.80;25.45;;;4.20;99.90;;;;;;4740764;30;20098;-79
2023/02/02 07:55:34;;;;;;;36.00;25.27;;;4.20;99.90;;;;;;4720296;30;20398;-80
2023/02/02 07:58:01;;;;;;;39.58;27.00;;;4.20;99.90;;;;;;4732456;30;20052;-80
2023/02/02 08:03:19;;;;;;;51.88;30.15;;;4.10;99.90;;;;;;4732492;30;20515;-81
2023/02/02 08:05:56;;;;;;;42.58;28.27;;;4.00;99.90;;;;;;4750885;30;20067;-79
2023/02/02 08:09:57;;;;;;;44.05;30.25;;;4.10;99.90;;;;;;4680119;30;20057;-80
2023/02/02 08:20:48;;;;;;;38.70;25.08;;;4.80;99.90;;;;;;4712797;30;20099;-80
2023/02/02 08:23:42;;;;;;;40.70;26.33;;;5.10;99.90;;;;;;4712667;30;20061;-79
2023/02/02 08:26:14;;;;;;;39.88;25.70;;;5.40;99.90;;;;;;4704912;30;20148;-79
2023/02/02 08:28:50;;;;;;;40.78;26.20;;;5.60;99.90;;;;;;4702760;30;20116;-80
2023/02/02 08:31:41;;;;;;;41.42;25.20;;;5.60;99.90;;;;;;4712929;30;20336;-80
2023/02/02 08:37:02;;;;;;;40.10;24.67;;;5.90;99.90;;;;;;4932502;24;20602;-80
2023/02/02 08:40:01;;;;;;;38.25;24.60;;;6.00;99.90;;;;;;4735440;30;20051;-80
2023/02/02 08:42:29;;;;;;;38.78;25.05;;;6.20;99.90;;;;;;4709101;30;20060;-79
2023/02/02 08:49:33;;;;;;;42.67;25.38;;;6.50;99.80;;;;;;4749227;30;20456;-79
2023/02/02 08:52:01;;;;;;;44.80;24.70;;;6.40;99.10;;;;;;4747781;30;20387;-80
2023/02/02 08:54:28;;;;;;;39.55;24.20;;;6.50;99.10;;;;;;4723465;30;20053;-80
2023/02/02 08:57:09;;;;;;;46.28;25.83;;;6.50;98.70;;;;;;4723389;30;20486;-79
2023/02/02 09:00:10;;;;;;;37.08;24.83;;;6.40;98.90;;;;;;4845967;24;20056;-80
2023/02/02 09:03:45;;;;;;;;;;;;;;;;;;;;;
2023/02/02 09:07:33;;;;;;;32.88;22.92;;;6.60;97.90;;;;;;4666981;30;20519;-79
2023/02/02 09:10:27;;;;;;;35.40;23.52;;;6.70;96.90;;;;;;4677001;30;20066;-79
2023/02/02 09:13:33;;;;;;;30.42;21.73;;;6.80;96.00;;;;;;4667167;30;20062;-79
2023/02/02 09:16:19;;;;;;;37.90;23.15;;;6.70;96.30;;;;;;4674782;30;20070;-81
2023/02/02 09:23:35;;;;;;;31.00;22.80;;;6.90;95.90;;;;;;4837211;24;20059;-79
2023/02/02 09:27:12;;;;;;;;;;;;;;;;;;;;;
2023/02/02 09:38:03;;;;;;;32.85;19.35;;;7.60;93.60;;;;;;4699614;30;20076;-79
2023/02/02 09:41:21;;;;;;;30.08;19.05;;;7.90;93.20;;;;;;4775723;24;20270;-80
2023/02/02 09:44:25;;;;;;;22.42;16.35;;;7.70;92.30;;;;;;4743430;24;20057;-80
2023/02/02 09:48:03;;;;;;;25.00;16.70;;;7.80;91.80;;;;;;4707954;30;20523;-80
2023/02/02 09:50:54;;;;;;;23.55;16.63;;;8.20;91.80;;;;;;4720751;30;20065;-77
2023/02/02 09:53:29;;;;;;;24.35;17.75;;;8.60;90.90;;;;;;4706076;30;20042;-80
2023/02/02 09:56:14;;;;;;;20.63;14.90;;;8.90;90.80;;;;;;4721809;30;20069;-78
2023/02/02 09:59:38;;;;;;;20.40;13.48;;;9.10;94.20;;;;;;4671814;30;20099;-80
2023/02/02 10:10:45;;;;;;;22.98;12.70;;;10.10;89.30;;;;;;4667448;30;20152;-78
2023/02/02 10:13:19;;;;;;;17.48;12.98;;;10.60;90.90;;;;;;4668465;30;20427;-82
2023/02/02 10:16:22;;;;;;;20.17;13.00;;;10.60;89.30;;;;;;5106429;24;20076;-82
2023/02/02 10:19:17;;;;;;;;;;;10.70;85.00;;;;;;4729403;30;20493;-80
2023/02/02 10:22:29;;;;;;;19.83;13.75;;;11.00;84.20;;;;;;4728788;30;20017;-82
2023/02/02 10:25:00;;;;;;;19.88;11.68;;;11.50;84.50;;;;;;4737742;30;20049;-79
2023/02/02 10:28:27;;;;;;;18.00;12.07;;;12.00;82.20;;;;;;4737406;30;20071;-78
2023/02/02 10:32:05;;;;;;;20.77;11.85;;;11.60;74.30;;;;;;4723958;30;20064;-79
2023/02/02 10:34:50;;;;;;;19.60;12.27;;;11.40;77.60;;;;;;4756800;30;20089;-80
2023/02/02 10:38:28;;;;;;;16.30;10.85;;;10.80;74.70;;;;;;4728580;30;20047;-81
2023/02/02 10:41:23;;;;;;;19.35;11.27;;;11.20;78.70;;;;;;4736563;30;20052;-80
2023/02/02 10:44:16;;;;;;;17.65;11.85;;;11.60;74.90;;;;;;4704982;30;20438;-78
2023/02/02 10:55:08;;;;;;;16.70;11.38;;;12.60;71.60;;;;;;5222203;24;20490;-79
2023/02/02 11:00:51;;;;;;;17.65;11.05;;;13.10;68.70;;;;;;5332435;24;20433;-79
2023/02/02 11:03:28;;;;;;;17.65;11.05;;;12.50;69.40;;;;;;4721218;30;20037;-77
2023/02/02 11:11:44;;;;;;;19.70;10.95;;;13.10;67.60;;;;;;4734125;30;20049;-80
2023/02/02 11:14:41;;;;;;;16.23;10.63;;;13.60;67.30;;;;;;4722346;30;20661;-80
2023/02/02 11:22:03;;;;;;;17.73;10.48;;;14.70;62.70;;;;;;4768012;24;20379;-83
2023/02/02 11:24:56;;;;;;;15.95;10.52;;;15.00;62.50;;;;;;4713847;30;20049;-80
2023/02/02 11:31:52;;;;;;;13.70;8.77;;;14.40;62.00;;;;;;4716602;30;20140;-78
2023/02/02 11:39:39;;;;;;;18.92;9.73;;;14.30;60.90;;;;;;4682909;30;20168;-76
2023/02/02 11:42:21;;;;;;;21.02;9.32;;;14.70;60.80;;;;;;4714111;30;20064;-79
2023/02/02 11:45:43;;;;;;;12.30;8.00;;;15.00;60.10;;;;;;4701985;30;20060;-78
2023/02/02 11:48:17;;;;;;;13.63;8.45;;;14.80;59.90;;;;;;4706635;30;20060;-76
2023/02/02 11:51:01;;;;;;;14.75;9.02;;;14.90;58.30;;;;;;4699718;30;20061;-80
2023/02/02 11:54:05;;;;;;;18.45;9.60;;;14.20;60.50;;;;;;4701604;30;20094;-83
2023/02/02 11:56:41;;;;;;;19.35;10.50;;;14.40;60.00;;;;;;4694796;30;20054;-82
2023/02/02 11:59:50;;;;;;;14.55;9.73;;;14.30;59.20;;;;;;4682934;30;20060;-79
2023/02/02 12:02:47;;;;;;;11.13;8.30;;;14.30;58.90;;;;;;4755282;24;20079;-83
2023/02/02 12:05:28;;;;;;;12.35;9.40;;;14.30;58.30;;;;;;4735754;30;20102;-75
2023/02/02 12:08:28;;;;;;;15.02;7.60;;;14.60;59.40;;;;;;4727583;30;20131;-76
2023/02/02 12:12:01;;;;;;;10.73;5.70;;;14.60;58.00;;;;;;4703041;30;20059;-80
2023/02/02 12:15:23;;;;;;;10.75;6.75;;;14.60;57.00;;;;;;4716760;30;20057;-78
2023/02/02 12:19:04;;;;;;;12.65;7.10;;;15.30;57.80;;;;;;4730102;30;20056;-78
2023/02/02 12:22:24;;;;;;;11.98;7.97;;;15.70;55.50;;;;;;4749427;24;20057;-79
2023/02/02 12:25:31;;;;;;;11.10;6.55;;;15.70;56.00;;;;;;4733422;30;20124;-80
2023/02/02 12:28:34;;;;;;;11.90;6.43;;;15.30;54.60;;;;;;4728184;30;20744;-80
2023/02/02 12:31:30;;;;;;;12.45;6.35;;;15.80;55.10;;;;;;4700437;30;20533;-79
2023/02/02 12:34:28;;;;;;;9.07;6.00;;;16.30;54.50;;;;;;4730632;30;20045;-77
2023/02/02 12:38:17;;;;;;;;;;;;;;;;;;;;;
2023/02/02 12:42:19;;;;;;;11.57;6.72;;;16.40;55.20;;;;;;4648619;30;20050;-78
2023/02/02 12:46:20;;;;;;;11.80;6.10;;;16.60;54.40;;;;;;4697847;30;20084;-81
2023/02/02 12:50:17;;;;;;;10.77;7.35;;;17.50;54.00;;;;;;4702537;30;20065;-75
2023/02/02 13:01:14;;;;;;;9.20;5.57;;;18.00;53.40;;;;;;4925079;24;20074;-81
2023/02/02 13:08:27;;;;;;;11.70;6.80;;;18.30;51.00;;;;;;4719438;24;20121;-80
2023/02/02 13:16:47;;;;;;;;;;;;;;;;;;;;;
2023/02/02 13:29:55;;;;;;;11.55;7.18;;;23.50;40.30;;;;;;4733329;30;19953;-79
2023/02/02 13:36:24;;;;;;;13.75;7.18;;;22.90;42.00;;;;;;4772979;24;20111;-78
2023/02/02 13:38:58;;;;;;;12.73;7.15;;;22.60;42.10;;;;;;4791769;24;20049;-78
2023/02/02 13:42:15;;;;;;;11.02;7.60;;;22.40;42.00;;;;;;4731592;30;20081;-77
2023/02/02 13:53:40;;;;;;;;;;;;;;;;;;;;;
2023/02/02 13:56:46;;;;;;;15.38;8.35;;;17.30;48.30;;;;;;4701881;30;20053;-76
2023/02/02 13:59:51;;;;;;;16.23;8.80;;;17.40;48.70;;;;;;4700794;30;20055;-77
2023/02/02 14:03:03;;;;;;;16.63;9.75;;;18.60;47.10;;;;;;4763415;24;20111;-75
2023/02/02 14:05:40;;;;;;;17.58;9.85;;;17.20;47.30;;;;;;4716861;30;20118;-77
2023/02/02 14:08:24;;;;;;;14.70;10.00;;;15.40;51.40;;;;;;4704877;30;20045;-77
2023/02/02 14:11:00;;;;;;;13.15;9.27;;;14.90;51.20;;;;;;4722372;30;20056;-73
2023/02/02 14:16:48;;;;;;;18.38;10.35;;;13.80;53.00;;;;;;4703807;30;20131;-77
2023/02/02 14:19:57;;;;;;;20.17;15.10;;;13.60;53.80;;;;;;4706447;30;20410;-77
2023/02/02 14:23:13;;;;;;;15.82;9.50;;;14.10;53.10;;;;;;4719866;30;20060;-76
2023/02/02 14:25:43;;;;;;;16.75;8.98;;;15.20;51.20;;;;;;4677209;30;20084;-75
2023/02/02 14:28:50;;;;;;;12.25;9.05;;;15.20;51.20;;;;;;4714985;30;20057;-77
2023/02/02 14:31:54;;;;;;;18.35;9.82;;;15.00;52.70;;;;;;4707541;30;20080;-78
2023/02/02 14:34:39;;;;;;;22.25;10.85;;;14.90;53.80;;;;;;4734798;24;20405;-75
2023/02/02 14:37:36;;;;;;;29.10;11.05;;;14.00;54.00;;;;;;4742208;24;20067;-76
2023/02/02 14:43:44;;;;;;;19.20;10.13;;;14.10;55.60;;;;;;4770859;24;20053;-80
2023/02/02 14:46:12;;;;;;;19.80;9.80;;;14.90;54.50;;;;;;4721513;30;20041;-74
2023/02/02 14:48:52;;;;;;;23.15;10.10;;;16.90;51.10;;;;;;4713061;30;20088;-78
2023/02/02 14:55:02;;;;;;;20.35;10.00;;;17.60;49.50;;;;;;4558490;28;20502;-74
2023/02/02 14:58:08;;;;;;;19.75;9.80;;;17.20;50.80;;;;;;4715365;30;20133;-79
2023/02/02 15:01:40;;;;;;;;;;;;;;;;;;;;;
2023/02/02 15:05:25;;;;;;;17.52;10.55;;;17.70;49.40;;;;;;4724392;30;20061;-79
2023/02/02 15:09:03;;;;;;;26.60;13.75;;;17.60;48.80;;;;;;4721010;30;20464;-78
2023/02/02 15:12:28;;;;;;;24.95;15.00;;;15.20;52.20;;;;;;4708072;24;20064;-82
2023/02/02 15:33:30;;;;;;;14.48;10.50;;;12.00;54.60;;;;;;4661671;30;20121;-80
2023/02/02 15:45:08;;;;;;;18.42;11.20;;;11.60;56.10;;;;;;4750125;30;20044;-78
2023/02/02 15:47:44;;;;;;;16.90;8.65;;;11.60;56.20;;;;;;4734790;30;20106;-79
2023/02/02 15:51:10;;;;;;;;;;;;;;;;;;;;;
2023/02/02 15:54:33;;;;;;;20.02;7.93;;;11.70;54.60;;;;;;4700952;30;20201;-79
2023/02/02 15:57:02;;;;;;;19.33;6.35;;;11.60;52.90;;;;;;4724591;30;20064;-82
2023/02/02 15:59:42;;;;;;;10.00;5.63;;;11.70;52.60;;;;;;4733629;30;20067;-78
2023/02/02 16:19:07;;;;;;;19.17;11.50;;;12.00;49.40;;;;;;4713612;30;20464;-76
2023/02/02 16:22:03;;;;;;;9.20;4.90;;;12.10;49.30;;;;;;4701159;30;20096;-78
2023/02/02 16:24:48;;;;;;;5.18;3.97;;;12.00;49.60;;;;;;4712730;30;20048;-80
2023/02/02 16:27:43;;;;;;;5.10;3.70;;;11.90;48.90;;;;;;4715011;30;20057;-81
2023/02/02 16:34:44;;;;;;;4.03;3.50;;;11.80;49.10;;;;;;4760951;24;20068;-82
2023/02/02 16:37:57;;;;;;;4.68;3.90;;;11.80;49.70;;;;;;4739197;30;20036;-79
2023/02/02 16:41:28;;;;;;;4.15;3.65;;;11.80;49.90;;;;;;4667018;30;20055;-82
2023/02/02 16:44:32;;;;;;;4.93;3.88;;;11.60;49.80;;;;;;4734898;30;20434;-80
2023/02/02 16:47:41;;;;;;;7.70;3.50;;;11.60;49.80;;;;;;4700168;30;20065;-80
2023/02/02 16:50:27;;;;;;;5.32;4.03;;;11.60;50.10;;;;;;4705848;30;20057;-82
2023/02/02 16:53:11;;;;;;;25.30;13.25;;;11.60;50.30;;;;;;4729937;30;20470;-75
2023/02/02 17:29:41;;;;;;;10.77;7.93;;;9.80;78.30;;;;;;4791935;24;20056;-80
2023/02/02 18:02:51;;;;;;;6.97;4.85;;;9.30;88.20;;;;;;4963729;24;20080;-79
2023/02/02 18:20:38;;;;;;;8.20;6.00;;;9.00;91.40;;;;;;4858866;24;20056;-80
2023/02/02 18:29:22;;;;;;;28.58;16.33;;;8.70;94.80;;;;;;4729659;30;20060;-75
2023/02/02 18:32:46;;;;;;;34.17;22.08;;;8.30;99.00;;;;;;4734894;30;20422;-74
2023/02/02 18:35:55;;;;;;;22.67;13.68;;;8.40;99.90;;;;;;4728947;30;20087;-75
2023/02/02 18:38:44;;;;;;;11.95;9.43;;;8.10;99.90;;;;;;4736731;30;20502;-73
2023/02/02 18:41:31;;;;;;;10.30;8.45;;;7.70;99.90;;;;;;4718180;30;20130;-76
2023/02/02 18:44:10;;;;;;;11.80;8.35;;;7.20;99.90;;;;;;4728015;30;20491;-73
2023/02/02 18:46:37;;;;;;;10.15;8.25;;;7.30;99.90;;;;;;4731444;30;20112;-74
2023/02/02 18:49:08;;;;;;;11.98;8.38;;;7.20;99.90;;;;;;4736855;30;20131;-75
2023/02/02 18:51:36;;;;;;;9.30;7.55;;;7.10;99.90;;;;;;4718896;30;20099;-75
2023/02/02 18:54:28;;;;;;;9.80;7.72;;;7.10;99.90;;;;;;4713111;30;20140;-77
2023/02/02 18:57:37;;;;;;;8.50;7.07;;;6.80;99.90;;;;;;4720819;30;20139;-74
2023/02/02 19:00:28;;;;;;;9.60;6.82;;;6.90;99.90;;;;;;4715486;30;20055;-76
2023/02/02 19:03:04;;;;;;;9.35;7.07;;;7.10;99.90;;;;;;4728861;30;20048;-75
2023/02/02 19:08:21;;;;;;;9.07;6.47;;;7.00;99.90;;;;;;4736057;30;20080;-75
2023/02/02 19:10:59;;;;;;;7.30;5.55;;;7.00;99.90;;;;;;4735168;30;20069;-72
2023/02/02 19:13:38;;;;;;;8.02;6.00;;;6.90;99.90;;;;;;4718286;30;20060;-75
2023/02/02 19:16:34;;;;;;;7.43;5.97;;;6.90;99.90;;;;;;4704668;30;20057;-76
2023/02/02 19:19:30;;;;;;;7.38;6.15;;;7.20;99.90;;;;;;4716764;30;20060;-73
2023/02/02 19:22:05;;;;;;;7.18;6.03;;;7.10;99.90;;;;;;4733436;30;20053;-73
2023/02/02 19:24:38;;;;;;;7.35;6.38;;;7.10;99.90;;;;;;4735313;30;20441;-78
2023/02/02 19:27:39;;;;;;;7.70;6.90;;;7.00;99.90;;;;;;4708338;24;20160;-75
2023/02/02 19:30:28;;;;;;;8.13;6.25;;;7.00;99.90;;;;;;4723388;30;20055;-77
2023/02/02 19:39:36;;;;;;;7.93;6.80;;;7.10;99.90;;;;;;2992736;28;20049;-82
2023/02/02 19:42:38;;;;;;;13.18;10.27;;;7.10;99.90;;;;;;4735811;30;20064;-76
2023/02/02 19:52:10;;;;;;;18.40;13.48;;;7.10;99.90;;;;;;4727399;25;20109;-76
2023/02/02 19:54:46;;;;;;;35.78;20.02;;;7.10;99.90;;;;;;4709135;30;20049;-78
2023/02/02 20:01:50;;;;;;;9.75;7.93;;;7.50;99.90;;;;;;4774692;24;20063;-78
2023/02/02 20:04:19;;;;;;;9.68;7.45;;;7.10;99.90;;;;;;4704227;30;20049;-82
2023/02/02 20:10:32;;;;;;;10.38;8.15;;;6.40;99.90;;;;;;4737195;30;20055;-78
2023/02/02 20:13:47;;;;;;;13.27;9.77;;;6.50;99.90;;;;;;4732368;30;20081;-80
2023/02/02 20:16:41;;;;;;;13.20;9.60;;;6.50;99.90;;;;;;4732706;30;20086;-77
2023/02/02 20:20:02;;;;;;;16.25;10.13;;;6.40;99.90;;;;;;4709928;30;20057;-81
2023/02/02 20:30:01;;;;;;;13.95;10.43;;;6.80;99.90;;;;;;4683380;30;20069;-79
2023/02/02 20:33:19;;;;;;;18.52;11.27;;;6.80;99.90;;;;;;4670820;30;20410;-79
2023/02/02 20:35:55;;;;;;;17.88;12.63;;;6.80;99.90;;;;;;4669698;30;20061;-77
2023/02/02 20:38:43;;;;;;;25.25;12.35;;;6.70;99.90;;;;;;4901106;24;20180;-76
2023/02/02 20:41:44;;;;;;;18.00;12.68;;;6.70;99.90;;;;;;4697434;30;20041;-80
2023/02/02 20:44:12;;;;;;;17.45;12.13;;;6.60;99.90;;;;;;4703956;30;20079;-80
2023/02/02 20:46:46;;;;;;;16.45;10.80;;;6.70;99.90;;;;;;4741904;24;20091;-76
2023/02/02 20:49:24;;;;;;;;;;;;;;;;;;;;;
2023/02/02 20:52:52;;;;;;;;;;;;;;;;;;;;;
2023/02/02 20:56:11;;;;;;;13.40;9.52;;;6.50;99.90;;;;;;4726789;24;20005;-77
2023/02/02 20:59:49;;;;;;;20.45;13.80;;;6.60;99.90;;;;;;4713895;30;20425;-79
2023/02/02 21:02:37;;;;;;;19.50;12.82;;;6.50;99.90;;;;;;4734193;30;20397;-78
2023/02/02 21:05:04;;;;;;;18.95;11.15;;;6.60;99.90;;;;;;4727548;30;20407;-79
2023/02/02 21:07:31;;;;;;;13.75;10.40;;;6.60;99.90;;;;;;4730073;30;20056;-79
2023/02/02 21:09:58;;;;;;;16.13;10.35;;;6.50;99.90;;;;;;4740605;30;20049;-79
2023/02/02 21:12:28;;;;;;;17.63;10.98;;;6.50;99.90;;;;;;4728663;30;20123;-77
2023/02/02 21:14:56;;;;;;;14.48;9.90;;;6.70;99.90;;;;;;4707882;30;20087;-79
2023/02/02 21:17:26;;;;;;;12.73;9.65;;;6.70;99.90;;;;;;4731658;30;20060;-77
2023/02/02 21:20:08;;;;;;;12.45;10.25;;;6.60;99.90;;;;;;4715827;30;20419;-77
2023/02/02 21:23:23;;;;;;;17.02;11.48;;;6.70;99.90;;;;;;4708629;30;20049;-77
2023/02/02 21:25:50;;;;;;;18.75;12.25;;;6.70;99.90;;;;;;4723022;30;20052;-79
2023/02/02 21:28:18;;;;;;;13.80;10.23;;;6.60;99.90;;;;;;4726783;30;20079;-76
2023/02/02 21:30:45;;;;;;;12.55;10.15;;;6.70;99.90;;;;;;4731777;30;20051;-74
2023/02/02 21:33:36;;;;;;;14.02;9.40;;;6.60;99.90;;;;;;4728886;30;20055;-81
2023/02/02 21:37:03;;;;;;;89.72;45.95;;;6.60;99.90;;;;;;4722154;30;20056;-76
2023/02/02 21:39:58;;;;;;;109.07;57.83;;;6.60;99.90;;;;;;4692894;30;20495;-76
2023/02/02 21:43:34;;;;;;;23.52;17.75;;;6.50;99.90;;;;;;4701727;30;20089;-81
2023/02/02 21:49:59;;;;;;;17.92;11.35;;;6.40;99.90;;;;;;4756521;24;20055;-81
2023/02/02 21:52:47;;;;;;;17.85;11.55;;;6.30;99.90;;;;;;4761980;30;20052;-82
2023/02/02 21:56:43;;;;;;;18.20;12.32;;;6.20;99.90;;;;;;4739271;30;20029;-84
2023/02/02 22:00:06;;;;;;;17.75;12.35;;;6.20;99.90;;;;;;4726442;24;20057;-79
2023/02/02 22:07:13;;;;;;;15.10;9.93;;;6.40;99.90;;;;;;4701864;30;20055;-81
2023/02/02 22:09:43;;;;;;;12.18;9.23;;;6.30;99.90;;;;;;4713036;30;20061;-84
2023/02/02 22:12:51;;;;;;;12.02;8.75;;;6.30;99.90;;;;;;4625076;31;20059;-78
2023/02/02 22:16:18;;;;;;;11.40;8.85;;;6.20;99.90;;;;;;4620991;31;20063;-75
2023/02/02 22:19:22;;;;;;;10.50;7.65;;;6.00;99.90;;;;;;4795248;24;20057;-80
2023/02/02 22:22:00;;;;;;;10.70;8.65;;;6.10;99.90;;;;;;4739790;30;20048;-79
2023/02/02 22:24:30;;;;;;;10.23;8.05;;;6.10;99.90;;;;;;4747531;30;20052;-80
2023/02/02 22:26:59;;;;;;;10.48;8.38;;;6.20;99.90;;;;;;4745477;30;20066;-80
2023/02/02 22:29:34;;;;;;;13.60;9.18;;;6.00;99.90;;;;;;4723535;30;20068;-83
2023/02/02 22:32:42;;;;;;;15.63;9.15;;;6.00;99.90;;;;;;4721905;30;20083;-78
2023/02/02 22:36:14;;;;;;;13.18;8.63;;;6.10;99.90;;;;;;4721216;30;20069;-79
2023/02/02 22:39:03;;;;;;;10.52;7.60;;;6.10;99.90;;;;;;4725467;30;20143;-82
2023/02/02 22:41:46;;;;;;;9.57;7.82;;;6.10;99.90;;;;;;4722016;30;20052;-82
2023/02/02 22:44:47;;;;;;;11.52;8.27;;;6.10;99.90;;;;;;4724136;30;20183;-81
2023/02/02 22:47:49;;;;;;;11.15;8.27;;;6.20;99.90;;;;;;4724729;30;20462;-82
2023/02/02 22:50:47;;;;;;;12.05;8.63;;;6.20;99.90;;;;;;4734862;24;20052;-81
2023/02/02 22:53:32;;;;;;;11.07;8.40;;;6.00;99.90;;;;;;4714869;30;20069;-83
2023/02/02 22:56:10;;;;;;;10.02;7.95;;;6.00;99.90;;;;;;4732140;30;20045;-78
2023/02/02 22:58:47;;;;;;;10.80;8.30;;;5.80;99.90;;;;;;4730232;30;20487;-78
2023/02/02 23:01:30;;;;;;;10.73;7.15;;;5.80;99.90;;;;;;4708235;30;20069;-81
2023/02/02 23:04:46;;;;;;;;;;;;;;;;;;;;;
2023/02/02 23:11:53;;;;;;;9.85;7.70;;;5.80;99.90;;;;;;4732637;30;20045;-84
2023/02/02 23:14:42;;;;;;;9.70;7.70;;;5.80;99.90;;;;;;4699814;30;20083;-78
2023/02/02 23:18:15;;;;;;;9.30;7.28;;;5.80;99.90;;;;;;4729628;30;20462;-75
2023/02/02 23:32:29;;;;;;;8.50;7.30;;;5.70;99.90;;;;;;4653585;28;20353;-79
2023/02/02 23:35:29;;;;;;;10.93;7.90;;;5.70;99.90;;;;;;4719920;30;20769;-82
2023/02/02 23:37:59;;;;;;;10.43;7.88;;;5.90;99.90;;;;;;4740483;30;20048;-80
2023/02/02 23:40:27;;;;;;;9.20;7.43;;;5.80;99.90;;;;;;4736503;30;20098;-77
2023/02/02 23:42:55;;;;;;;9.45;7.35;;;5.90;99.90;;;;;;4750083;30;20075;-79
2023/02/02 23:45:25;;;;;;;9.60;7.65;;;5.80;99.90;;;;;;4758246;30;20051;-76
2023/02/02 23:49:10;;;;;;;9.95;7.70;;;5.50;99.90;;;;;;4691784;30;20530;-80
2023/02/02 23:55:11;;;;;;;10.30;8.30;;;5.50;99.90;;;;;;4753939;30;20049;-87
2023/02/02 23:57:47;;;;;;;11.07;7.68;;;5.30;99.90;;;;;;4925170;24;20305;-85
